Time;durP1;ratioP1;P1;durP2;ratioP2;P2;SDS_P1;SDS_P2;PMS_P1;PMS_P2;Temp;Humidity;BMP_temperature;BMP_pressure;BME280_temperature;BME280_humidity;BME280_pressure;Samples;Min_cycle;Max_cycle;Signal;HPM_P1;HPM_P2
2023/08/25 00:01:49;;;;;;;3.22;2.05;;;;;;;20.86;95.17;100237.09;5028887;28;20037;-87
2023/08/25 00:04:16;;;;;;;2.38;1.55;;;;;;;20.90;94.80;100235.97;5030816;28;20525;-87
2023/08/25 00:06:43;;;;;;;2.45;2.20;;;;;;;20.94;94.26;100226.88;5031349;28;20060;-88
2023/08/25 00:09:10;;;;;;;2.00;1.80;;;;;;;20.97;93.76;100232.00;4997815;28;20211;-89
2023/08/25 00:11:39;;;;;;;2.90;1.65;;;;;;;21.01;93.53;100224.72;5014234;28;20045;-87
2023/08/25 00:14:06;;;;;;;4.80;2.17;;;;;;;21.05;93.17;100220.91;5027353;28;20794;-87
2023/08/25 00:16:33;;;;;;;3.13;1.88;;;;;;;21.08;92.82;100218.06;5013057;28;20079;-91
2023/08/25 00:18:59;;;;;;;4.10;2.17;;;;;;;21.12;92.46;100215.13;5030192;28;20045;-87
2023/08/25 00:21:26;;;;;;;2.58;1.88;;;;;;;21.15;92.34;100211.44;4996162;28;20041;-88
2023/08/25 00:23:53;;;;;;;5.43;2.05;;;;;;;21.18;92.30;100207.72;5028439;28;20048;-87
2023/08/25 00:26:21;;;;;;;1.92;1.75;;;;;;;21.16;92.45;100194.50;5029863;28;20077;-88
2023/08/25 00:28:47;;;;;;;2.47;2.17;;;;;;;21.15;92.43;100193.63;5012736;28;20072;-88
2023/08/25 00:31:14;;;;;;;5.38;2.30;;;;;;;21.15;92.67;100185.66;5030067;28;20042;-87
2023/08/25 00:33:52;;;;;;;2.20;2.03;;;;;;;21.15;92.97;100177.66;5010064;28;20838;-86
2023/08/25 00:36:18;;;;;;;2.50;1.90;;;;;;;21.17;92.79;100177.56;5025718;28;20034;-87
2023/08/25 00:38:45;;;;;;;3.80;2.40;;;;;;;21.21;92.24;100178.25;5024583;28;20045;-88
2023/08/25 00:41:18;;;;;;;3.28;2.10;;;;;;;21.22;92.02;100174.63;5021798;28;20045;-87
2023/08/25 00:43:45;;;;;;;4.03;1.73;;;;;;;21.25;91.97;100177.09;5027676;28;20072;-89
2023/08/25 00:46:13;;;;;;;1.70;1.60;;;;;;;21.29;91.32;100168.00;5025895;28;20049;-88
2023/08/25 00:48:41;;;;;;;1.65;1.55;;;;;;;21.35;91.10;100161.44;5022381;28;20046;-91
2023/08/25 00:51:09;;;;;;;2.05;1.27;;;;;;;21.36;90.91;100161.34;5009564;28;20504;-86
2023/08/25 00:53:38;;;;;;;3.88;1.80;;;;;;;21.39;90.65;100157.63;5027029;28;20500;-93
2023/08/25 00:56:12;;;;;;;2.22;1.63;;;;;;;21.40;90.67;100160.19;5043355;28;20045;-87
2023/08/25 00:58:46;;;;;;;3.35;2.40;;;;;;;21.42;91.27;100168.06;5003809;28;20049;-88
2023/08/25 01:01:13;;;;;;;2.03;1.88;;;;;;;21.40;91.47;100156.69;5007610;28;20054;-87
2023/08/25 01:03:41;;;;;;;6.75;2.63;;;;;;;21.41;91.72;100172.56;5030477;28;20049;-90
2023/08/25 01:06:09;;;;;;;3.72;2.70;;;;;;;21.38;92.23;100158.56;5032305;28;20065;-89
2023/08/25 01:08:37;;;;;;;5.53;2.65;;;;;;;21.37;91.70;100156.84;5010091;28;20468;-89
2023/08/25 01:11:57;;;;;;;4.20;2.40;;;;;;;21.35;92.50;100158.78;5030063;28;20129;-89
2023/08/25 01:14:40;;;;;;;2.72;2.38;;;;;;;21.30;92.68;100161.69;5021960;28;20056;-88
2023/08/25 01:17:20;;;;;;;3.83;1.90;;;;;;;21.23;92.98;100152.41;5029593;28;20091;-90
2023/08/25 01:19:58;;;;;;;2.53;2.03;;;;;;;21.10;93.71;100147.81;5011893;28;20051;-87
2023/08/25 01:22:49;;;;;;;5.22;2.85;;;;;;;21.04;93.83;100148.22;5025456;28;20501;-88
2023/08/25 01:25:32;;;;;;;2.35;2.15;;;;;;;21.00;93.95;100144.00;5020521;28;20049;-86
2023/08/25 01:28:05;;;;;;;3.33;2.42;;;;;;;20.98;93.74;100140.59;5023422;28;20088;-86
2023/08/25 01:30:36;;;;;;;2.17;2.05;;;;;;;20.98;93.70;100136.13;5025418;28;21301;-87
2023/08/25 01:33:04;;;;;;;2.63;2.38;;;;;;;21.02;93.39;100133.28;5005486;28;20428;-87
2023/08/25 01:36:06;;;;;;;3.05;2.25;;;;;;;21.07;93.24;100115.25;5024947;28;20056;-88
2023/08/25 01:38:43;;;;;;;2.13;1.92;;;;;;;21.09;92.87;100108.00;5025466;28;20045;-90
2023/08/25 01:41:31;;;;;;;3.60;1.80;;;;;;;21.13;92.73;100109.50;5021681;28;20041;-88
2023/08/25 01:44:03;;;;;;;3.72;1.83;;;;;;;21.13;92.50;100115.72;5023144;28;20088;-87
2023/08/25 01:46:35;;;;;;;2.03;1.67;;;;;;;21.13;92.23;100118.38;5025973;28;20120;-87
2023/08/25 01:49:07;;;;;;;1.95;1.83;;;;;;;21.14;92.08;100130.72;5027913;28;20053;-93
2023/08/25 01:51:34;;;;;;;4.43;2.30;;;;;;;21.13;92.22;100136.13;5026808;28;20049;-86
2023/08/25 01:54:01;;;;;;;2.10;1.65;;;;;;;21.10;92.24;100134.50;5014160;28;20057;-89
2023/08/25 01:56:28;;;;;;;2.45;1.92;;;;;;;21.05;92.69;100151.72;5014210;28;20069;-87
2023/08/25 01:58:55;;;;;;;3.78;2.40;;;;;;;21.03;92.73;100142.97;5011350;28;20052;-89
2023/08/25 02:01:22;;;;;;;3.95;2.47;;;;;;;20.95;92.95;100141.63;5014607;28;20488;-88
2023/08/25 02:03:48;;;;;;;2.25;1.55;;;;;;;20.85;93.31;100137.81;5033799;28;20057;-87
2023/08/25 02:06:15;;;;;;;1.70;1.60;;;;;;;20.75;93.70;100134.84;5014906;28;20061;-88
2023/08/25 02:08:42;;;;;;;4.97;2.13;;;;;;;20.61;94.31;100125.03;5013405;28;20041;-88
2023/08/25 02:11:09;;;;;;;3.38;2.45;;;;;;;20.54;94.87;100130.78;5015139;28;20042;-87
2023/08/25 02:13:36;;;;;;;2.60;1.75;;;;;;;20.45;94.96;100137.50;5032240;28;20494;-89
2023/08/25 02:16:03;;;;;;;2.53;2.33;;;;;;;20.37;95.44;100139.75;5033005;28;20095;-88
2023/08/25 02:18:30;;;;;;;2.13;1.60;;;;;;;20.26;96.10;100133.25;5035387;28;20120;-92
2023/08/25 02:20:56;;;;;;;1.63;1.45;;;;;;;20.19;96.50;100139.00;5035179;28;20032;-88
2023/08/25 02:23:26;;;;;;;4.22;1.80;;;;;;;20.12;96.89;100144.66;5019722;28;20045;-92
2023/08/25 02:25:53;;;;;;;2.72;1.80;;;;;;;20.06;97.30;100138.84;5018920;28;20136;-88
2023/08/25 02:28:20;;;;;;;3.45;2.67;;;;;;;20.02;97.60;100134.66;5016095;28;20077;-89
2023/08/25 02:30:47;;;;;;;4.00;1.77;;;;;;;19.98;98.11;100131.31;5035689;28;20402;-90
2023/08/25 02:33:15;;;;;;;3.30;2.30;;;;;;;19.98;98.05;100139.28;5018104;28;20036;-87
2023/08/25 02:35:43;;;;;;;2.33;2.13;;;;;;;19.93;98.30;100131.59;5028223;28;20060;-87
2023/08/25 02:38:11;;;;;;;3.00;2.30;;;;;;;19.91;98.23;100122.84;5028652;28;20057;-88
2023/08/25 02:40:43;;;;;;;3.17;2.25;;;;;;;19.85;98.70;100125.00;5029914;28;20107;-90
2023/08/25 02:43:10;;;;;;;3.15;2.65;;;;;;;19.81;98.98;100129.56;5034875;28;20045;-88
2023/08/25 02:45:38;;;;;;;2.47;2.28;;;;;;;19.78;98.93;100135.91;5036252;28;20041;-88
2023/08/25 02:48:05;;;;;;;3.42;2.30;;;;;;;19.75;99.25;100125.47;5020339;28;20046;-91
2023/08/25 02:50:32;;;;;;;2.40;2.20;;;;;;;19.73;99.25;100115.88;5038874;28;20049;-91
2023/08/25 02:52:59;;;;;;;4.15;1.90;;;;;;;19.69;99.44;100115.19;5024832;28;20140;-88
2023/08/25 02:55:30;;;;;;;3.85;2.50;;;;;;;19.67;99.72;100117.06;5019556;28;20045;-88
2023/08/25 02:57:56;;;;;;;5.18;2.40;;;;;;;19.64;99.71;100117.25;5034822;28;20567;-85
2023/08/25 03:00:24;;;;;;;4.93;2.40;;;;;;;19.60;100.00;100126.31;5014662;28;21221;-88
2023/08/25 03:02:52;;;;;;;3.03;2.10;;;;;;;19.58;100.00;100121.09;5014684;28;20069;-89
2023/08/25 03:05:21;;;;;;;2.78;2.00;;;;;;;19.53;100.00;100133.78;5016304;28;20047;-86
2023/08/25 03:07:48;;;;;;;3.22;2.40;;;;;;;19.50;100.00;100120.66;5023087;28;20111;-87
2023/08/25 03:10:18;;;;;;;3.80;2.75;;;;;;;19.46;100.00;100124.41;5021599;28;20045;-86
2023/08/25 03:12:45;;;;;;;3.17;2.45;;;;;;;19.43;100.00;100121.94;5035504;28;20053;-86
2023/08/25 03:15:12;;;;;;;5.05;2.42;;;;;;;19.39;100.00;100123.91;5028817;28;20108;-88
2023/08/25 03:17:42;;;;;;;2.05;1.95;;;;;;;19.37;100.00;100114.28;5028184;28;20444;-88
2023/08/25 03:20:09;;;;;;;4.18;2.80;;;;;;;19.32;100.00;100127.81;5017489;28;20046;-87
2023/08/25 03:22:38;;;;;;;2.50;2.05;;;;;;;19.28;100.00;100126.25;5030237;28;20054;-88
2023/08/25 03:25:06;;;;;;;3.45;2.35;;;;;;;19.23;100.00;100129.19;5031270;28;20136;-93
2023/08/25 03:27:34;;;;;;;4.75;2.33;;;;;;;19.23;100.00;100125.66;5031567;28;20041;-87
2023/08/25 03:30:01;;;;;;;2.88;2.60;;;;;;;19.20;100.00;100123.16;5008507;28;20053;-88
2023/08/25 03:32:28;;;;;;;2.75;2.40;;;;;;;19.16;100.00;100133.97;5030716;28;20057;-87
2023/08/25 03:34:58;;;;;;;6.10;3.00;;;;;;;19.13;100.00;100127.94;5015632;28;20583;-88
2023/08/25 03:37:24;;;;;;;3.92;2.45;;;;;;;19.08;100.00;100130.84;5029107;28;20080;-87
2023/08/25 03:39:54;;;;;;;2.95;2.67;;;;;;;19.04;100.00;100118.69;5015021;28;20099;-88
2023/08/25 03:42:20;;;;;;;2.53;2.33;;;;;;;19.04;100.00;100112.53;5028513;28;20473;-87
2023/08/25 03:44:48;;;;;;;3.00;2.63;;;;;;;19.04;100.00;100118.69;5026610;28;20493;-89
2023/08/25 03:47:15;;;;;;;2.55;2.20;;;;;;;19.02;100.00;100120.56;5012969;28;20037;-87
2023/08/25 03:49:42;;;;;;;2.40;2.20;;;;;;;19.01;100.00;100121.50;5030259;28;20041;-86
2023/08/25 03:52:09;;;;;;;4.18;2.65;;;;;;;19.05;100.00;100120.41;5034188;28;20064;-88
2023/08/25 03:54:35;;;;;;;1.98;1.75;;;;;;;19.04;100.00;100126.63;5030266;28;20038;-89
2023/08/25 03:57:06;;;;;;;2.97;2.05;;;;;;;18.99;100.00;100118.06;5021824;28;20056;-90
2023/08/25 03:59:39;;;;;;;3.83;2.40;;;;;;;18.95;100.00;100117.34;5029625;28;20037;-89
2023/08/25 04:02:06;;;;;;;3.55;2.05;;;;;;;18.93;100.00;100124.56;5023399;28;20057;-88
2023/08/25 04:04:33;;;;;;;1.80;1.67;;;;;;;18.90;100.00;100115.91;5013579;28;20434;-89
2023/08/25 04:07:01;;;;;;;3.13;2.72;;;;;;;18.86;100.00;100115.16;5028211;28;20041;-88
2023/08/25 04:09:29;;;;;;;3.20;2.67;;;;;;;18.84;100.00;100109.94;5032102;28;20045;-88
2023/08/25 04:11:56;;;;;;;3.42;2.22;;;;;;;18.81;100.00;100112.75;5027291;28;20037;-85
2023/08/25 04:14:22;;;;;;;4.55;3.03;;;;;;;18.81;100.00;100118.06;5024077;28;20038;-89
2023/08/25 04:16:49;;;;;;;2.00;1.83;;;;;;;18.79;100.00;100108.47;5027321;28;20052;-86
2023/08/25 04:19:16;;;;;;;5.03;2.55;;;;;;;18.79;100.00;100116.44;5027158;28;20056;-86
2023/08/25 04:21:44;;;;;;;2.17;2.08;;;;;;;18.80;100.00;100118.16;5029343;28;20073;-88
2023/08/25 04:24:09;;;;;;;3.35;2.10;;;;;;;18.79;100.00;100111.13;5026886;28;20491;-87
2023/08/25 04:26:36;;;;;;;2.75;1.85;;;;;;;18.79;100.00;100117.28;5010142;28;20057;-86
2023/08/25 04:29:04;;;;;;;3.33;2.05;;;;;;;18.79;100.00;100113.78;5027251;28;20049;-91
2023/08/25 04:31:30;;;;;;;3.13;2.50;;;;;;;18.80;100.00;100115.50;5012629;28;20153;-87
2023/08/25 04:33:57;;;;;;;3.92;2.50;;;;;;;18.82;100.00;100105.66;5027365;28;20136;-88
2023/08/25 04:36:24;;;;;;;2.92;2.28;;;;;;;18.83;100.00;100110.03;5030558;28;20037;-87
2023/08/25 04:38:51;;;;;;;3.47;1.80;;;;;;;18.80;100.00;100102.25;5036194;28;20049;-86
2023/08/25 04:41:20;;;;;;;3.60;2.53;;;;;;;18.84;100.00;100106.44;5029336;28;20088;-94
2023/08/25 04:43:47;;;;;;;4.00;2.28;;;;;;;18.83;100.00;100097.63;5038727;28;20041;-88
2023/08/25 04:46:14;;;;;;;2.72;1.92;;;;;;;18.87;100.00;100100.97;5051114;28;20040;-88
2023/08/25 04:48:45;;;;;;;5.13;2.22;;;;;;;18.90;100.00;100102.63;5035113;28;20124;-88
2023/08/25 04:51:14;;;;;;;6.75;2.42;;;;;;;18.90;100.00;100098.19;5014664;28;20045;-89
2023/08/25 04:53:44;;;;;;;2.80;2.60;;;;;;;18.94;100.00;100101.53;5011046;28;20045;-89
2023/08/25 04:56:11;;;;;;;2.65;2.45;;;;;;;18.95;100.00;100097.94;5049004;28;20041;-87
2023/08/25 04:58:38;;;;;;;4.15;2.70;;;;;;;18.95;100.00;100101.44;5029741;28;20048;-89
2023/08/25 05:01:05;;;;;;;3.70;1.90;;;;;;;18.95;100.00;100105.91;5033088;28;20451;-89
2023/08/25 05:03:31;;;;;;;6.10;2.28;;;;;;;18.97;100.00;100107.53;5009477;28;20140;-89
2023/08/25 05:05:58;;;;;;;3.25;2.55;;;;;;;19.00;100.00;100103.88;5025863;28;20577;-88
2023/08/25 05:08:25;;;;;;;3.95;2.63;;;;;;;19.00;100.00;100098.56;5024278;28;20037;-86
2023/08/25 05:10:53;;;;;;;4.40;3.25;;;;;;;19.03;100.00;100106.34;5028809;28;20052;-87
2023/08/25 05:13:23;;;;;;;4.55;2.63;;;;;;;19.07;100.00;100112.34;5027076;28;20638;-90
2023/08/25 05:15:49;;;;;;;7.80;3.13;;;;;;;19.08;100.00;100101.66;5026334;28;20393;-92
2023/08/25 05:18:16;;;;;;;5.18;2.90;;;;;;;19.15;100.00;100110.13;5032807;28;20477;-91
2023/08/25 05:20:43;;;;;;;5.28;3.40;;;;;;;19.20;100.00;100107.25;5047163;28;20052;-87
2023/08/25 05:23:10;;;;;;;3.33;2.35;;;;;;;19.25;100.00;100119.31;5032243;28;20033;-86
2023/08/25 05:25:38;;;;;;;8.20;4.07;;;;;;;19.28;100.00;100111.22;5028618;28;20044;-87
2023/08/25 05:28:05;;;;;;;4.90;3.28;;;;;;;19.34;100.00;100118.81;5011321;28;20045;-87
2023/08/25 05:30:31;;;;;;;4.45;2.67;;;;;;;19.39;100.00;100123.06;5017149;28;20068;-87
2023/08/25 05:32:58;;;;;;;4.15;3.20;;;;;;;19.45;100.00;100122.69;5029640;28;20372;-87
2023/08/25 05:35:27;;;;;;;4.85;2.65;;;;;;;19.50;100.00;100125.94;5008880;28;20076;-88
2023/08/25 05:37:54;;;;;;;4.53;3.03;;;;;;;19.54;100.00;100124.00;5024945;28;20095;-86
2023/08/25 05:40:21;;;;;;;6.75;3.05;;;;;;;19.58;100.00;100123.75;5020721;28;20544;-89
2023/08/25 05:42:47;;;;;;;2.65;2.45;;;;;;;19.64;100.00;100126.03;4991986;28;20049;-86
2023/08/25 05:45:14;;;;;;;3.90;2.60;;;;;;;19.69;100.00;100124.97;5022182;28;20076;-87
2023/08/25 05:47:41;;;;;;;5.72;2.60;;;;;;;19.74;100.00;100128.22;5004678;28;20042;-88
2023/08/25 05:50:08;;;;;;;3.47;2.60;;;;;;;19.80;100.00;100122.53;5021307;28;20995;-87
2023/08/25 05:52:37;;;;;;;2.78;2.53;;;;;;;19.83;100.00;100117.94;5005267;28;20161;-89
2023/08/25 05:55:04;;;;;;;6.75;2.92;;;;;;;19.90;100.00;100122.94;5022532;28;20554;-88
2023/08/25 05:57:31;;;;;;;4.18;2.50;;;;;;;19.97;100.00;100129.59;5020611;28;20665;-89
2023/08/25 05:59:59;;;;;;;5.43;2.72;;;;;;;20.04;100.00;100135.41;5006922;28;20033;-89
2023/08/25 06:02:25;;;;;;;4.65;2.55;;;;;;;20.10;99.55;100130.63;5005028;28;20091;-89
2023/08/25 06:04:52;;;;;;;2.72;2.38;;;;;;;20.18;99.41;100132.84;5002686;28;20370;-87
2023/08/25 06:07:19;;;;;;;2.78;2.58;;;;;;;20.25;98.82;100136.00;5021540;28;20048;-89
2023/08/25 06:09:45;;;;;;;5.68;2.67;;;;;;;20.31;98.55;100148.91;5021422;28;20069;-89
2023/08/25 06:12:12;;;;;;;5.53;3.20;;;;;;;20.37;98.53;100145.06;5006373;28;20041;-88
2023/08/25 06:14:39;;;;;;;4.35;3.50;;;;;;;20.42;98.26;100146.50;5003378;28;20054;-91
2023/08/25 06:17:05;;;;;;;4.13;2.75;;;;;;;20.46;98.11;100155.16;5020750;28;20117;-87
2023/08/25 06:19:33;;;;;;;3.22;2.72;;;;;;;20.54;97.75;100155.56;5018073;28;20044;-90
2023/08/25 06:21:59;;;;;;;2.28;2.13;;;;;;;20.63;97.43;100155.00;4989420;28;20142;-87
2023/08/25 06:24:26;;;;;;;2.67;2.20;;;;;;;20.74;96.93;100154.44;5033339;28;20045;-91
2023/08/25 06:26:56;;;;;;;3.65;2.47;;;;;;;20.81;96.87;100154.91;5019257;28;20737;-91
2023/08/25 06:29:23;;;;;;;4.40;2.40;;;;;;;20.90;96.13;100149.03;5025569;28;20041;-88
2023/08/25 06:31:50;;;;;;;2.95;2.58;;;;;;;20.97;95.38;100146.84;5002729;28;20050;-90
2023/08/25 06:34:16;;;;;;;4.68;2.88;;;;;;;21.03;94.73;100137.63;5019361;28;20243;-90
2023/08/25 06:36:43;;;;;;;4.32;3.08;;;;;;;21.08;94.41;100141.75;5024809;28;20682;-88
2023/08/25 06:39:11;;;;;;;7.00;2.63;;;;;;;21.17;93.50;100137.66;5010695;28;20077;-87
2023/08/25 06:41:37;;;;;;;4.15;2.22;;;;;;;21.21;93.27;100130.34;5026889;28;20045;-91
2023/08/25 06:44:04;;;;;;;3.40;2.83;;;;;;;21.36;93.09;100120.56;5011131;28;20045;-88
2023/08/25 06:46:31;;;;;;;5.15;2.00;;;;;;;21.64;92.05;100120.53;5025596;28;20116;-87
2023/08/25 06:49:01;;;;;;;2.90;2.22;;;;;;;21.99;90.60;100121.88;5025082;28;20042;-86
2023/08/25 06:51:28;;;;;;;3.35;2.05;;;;;;;22.37;89.23;100126.53;5028976;28;20049;-90
2023/08/25 06:53:56;;;;;;;2.88;2.55;;;;;;;22.59;88.02;100117.94;5028438;28;20095;-87
2023/08/25 06:56:23;;;;;;;4.20;2.63;;;;;;;22.89;87.83;100105.25;5024853;28;20041;-90
2023/08/25 06:58:49;;;;;;;4.75;3.72;;;;;;;23.16;86.09;100109.66;5030269;28;20042;-88
2023/08/25 07:01:18;;;;;;;5.70;2.95;;;;;;;23.43;85.86;100118.38;5027050;28;20053;-89
2023/08/25 07:03:44;;;;;;;4.07;3.35;;;;;;;23.76;82.91;100114.22;5034631;28;20136;-87
2023/08/25 07:06:11;;;;;;;5.82;4.35;;;;;;;23.89;83.67;100114.16;5011599;28;20042;-87
2023/08/25 07:08:38;;;;;;;5.82;3.85;;;;;;;24.01;83.10;100116.94;5029136;28;20049;-86
2023/08/25 07:11:05;;;;;;;4.22;3.30;;;;;;;24.11;81.92;100126.84;5032914;28;20782;-88
2023/08/25 07:13:32;;;;;;;3.88;3.47;;;;;;;24.24;82.61;100110.72;5030745;28;20049;-88
2023/08/25 07:15:59;;;;;;;6.18;3.50;;;;;;;24.74;80.98;100099.00;5016127;28;20041;-88
2023/08/25 07:18:26;;;;;;;5.88;3.90;;;;;;;25.17;77.77;100100.97;5012969;28;20037;-88
2023/08/25 07:20:52;;;;;;;3.67;3.35;;;;;;;25.17;77.36;100086.75;5022397;28;20126;-88
2023/08/25 07:23:19;;;;;;;6.50;3.25;;;;;;;25.21;77.05;100081.03;5021058;28;20053;-87
2023/08/25 07:25:46;;;;;;;6.32;3.38;;;;;;;25.56;75.64;100082.69;5030603;28;20107;-84
2023/08/25 07:28:13;;;;;;;2.65;2.45;;;;;;;25.99;73.95;100074.81;5029003;28;20462;-83
2023/08/25 07:30:39;;;;;;;13.07;4.20;;;;;;;26.44;71.50;100071.06;5013287;28;20064;-83
2023/08/25 07:33:07;;;;;;;3.42;2.67;;;;;;;26.95;68.41;100082.84;5026456;28;20050;-81
2023/08/25 07:35:36;;;;;;;5.15;3.33;;;;;;;27.02;66.63;100087.53;5028147;28;20054;-84
2023/08/25 07:38:04;;;;;;;7.13;2.70;;;;;;;27.09;66.10;100103.97;5030865;28;20049;-80
2023/08/25 07:40:32;;;;;;;3.33;2.72;;;;;;;27.52;65.22;100108.28;5039139;28;20037;-82
2023/08/25 07:43:02;;;;;;;3.67;2.47;;;;;;;27.95;62.39;100113.47;5009149;28;20685;-85
2023/08/25 07:45:30;;;;;;;3.97;2.35;;;;;;;28.24;61.56;100124.28;5030421;28;20050;-84
2023/08/25 07:47:59;;;;;;;4.03;3.70;;;;;;;28.23;59.59;100119.91;5023052;28;20043;-79
2023/08/25 07:50:27;;;;;;;5.88;3.22;;;;;;;27.82;61.41;100127.16;5020986;28;20048;-79
2023/08/25 07:52:54;;;;;;;2.85;2.60;;;;;;;27.60;62.45;100141.69;5019697;28;20045;-81
2023/08/25 07:55:21;;;;;;;4.43;3.15;;;;;;;27.44;62.39;100143.06;5021735;28;20064;-79
2023/08/25 07:57:48;;;;;;;4.50;3.00;;;;;;;27.32;62.04;100142.25;5009342;28;20383;-80
2023/08/25 08:00:17;;;;;;;3.88;3.17;;;;;;;27.39;62.83;100137.22;5022304;28;20040;-81
2023/08/25 08:02:48;;;;;;;3.63;2.28;;;;;;;27.68;61.72;100147.25;5019725;28;20049;-84
2023/08/25 08:05:17;;;;;;;3.17;1.98;;;;;;;28.12;59.99;100144.25;5016937;28;20049;-79
2023/08/25 08:07:45;;;;;;;3.20;2.08;;;;;;;28.09;58.65;100149.91;5021194;28;20052;-79
2023/08/25 08:10:12;;;;;;;3.65;1.67;;;;;;;27.88;59.88;100153.53;5026727;28;20220;-79
2023/08/25 08:12:41;;;;;;;4.05;1.95;;;;;;;28.66;57.83;100150.09;5021405;28;20037;-82
2023/08/25 08:15:09;;;;;;;2.75;1.77;;;;;;;29.32;55.21;100149.22;5008879;28;20141;-79
2023/08/25 08:17:36;;;;;;;1.85;1.35;;;;;;;29.79;53.41;100145.59;5013999;28;20061;-81
2023/08/25 08:20:05;;;;;;;2.95;2.00;;;;;;;30.38;50.33;100147.91;5023405;28;20136;-87
2023/08/25 08:22:32;;;;;;;1.88;1.77;;;;;;;30.87;48.96;100154.72;5023306;28;20034;-80
2023/08/25 08:24:58;;;;;;;2.38;1.88;;;;;;;30.15;50.44;100159.13;5026051;28;20037;-79
2023/08/25 08:27:25;;;;;;;2.28;1.90;;;;;;;29.47;51.97;100144.19;5020509;28;20056;-82
2023/08/25 08:29:51;;;;;;;2.03;1.77;;;;;;;28.67;53.77;100149.09;5008920;28;20390;-80
2023/08/25 08:32:18;;;;;;;2.72;1.98;;;;;;;28.17;55.99;100150.06;5024123;28;20496;-79
2023/08/25 08:34:44;;;;;;;3.58;2.03;;;;;;;27.95;56.24;100149.31;5025602;28;20501;-82
2023/08/25 08:37:11;;;;;;;3.60;1.85;;;;;;;27.65;57.74;100147.50;5025654;28;20060;-79
2023/08/25 08:39:38;;;;;;;4.70;2.00;;;;;;;27.63;57.60;100141.44;5024633;28;20045;-79
2023/08/25 08:42:07;;;;;;;2.92;2.25;;;;;;;27.43;58.13;100140.50;5024271;28;20053;-83
2023/08/25 08:44:40;;;;;;;2.53;1.60;;;;;;;27.59;57.78;100135.47;5020877;28;20056;-80
2023/08/25 08:47:09;;;;;;;3.60;2.00;;;;;;;27.97;56.93;100135.72;5020428;28;20067;-80
2023/08/25 08:49:37;;;;;;;3.85;2.25;;;;;;;27.97;56.19;100149.16;5019781;28;20044;-83
2023/08/25 08:52:06;;;;;;;2.03;1.83;;;;;;;28.22;55.25;100137.91;5022593;28;20045;-80
2023/08/25 08:54:35;;;;;;;1.67;1.23;;;;;;;28.63;54.10;100142.25;5006974;28;20130;-80
2023/08/25 08:57:02;;;;;;;2.72;1.23;;;;;;;29.23;52.53;100142.00;4995822;28;20136;-79
2023/08/25 08:59:28;;;;;;;3.83;1.98;;;;;;;29.56;50.88;100137.06;5008857;28;20500;-84
2023/08/25 09:01:58;;;;;;;3.40;1.48;;;;;;;29.47;50.61;100144.19;5022373;28;20408;-80
2023/08/25 09:04:26;;;;;;;2.15;1.40;;;;;;;29.52;50.60;100155.38;5019876;28;20835;-83
2023/08/25 09:06:56;;;;;;;1.55;1.05;;;;;;;30.00;49.22;100150.75;5023735;28;20052;-80
2023/08/25 09:09:23;;;;;;;3.38;1.75;;;;;;;30.71;47.68;100158.16;5006948;28;20366;-82
2023/08/25 09:11:51;;;;;;;3.78;2.80;;;;;;;30.84;47.76;100162.13;5005430;28;20046;-81
2023/08/25 09:14:29;;;;;;;2.60;1.88;;;;;;;30.71;47.07;100163.56;5025959;28;20034;-80
2023/08/25 09:17:04;;;;;;;2.10;1.77;;;;;;;30.92;46.91;100160.50;5022545;28;20053;-79
2023/08/25 09:19:31;;;;;;;2.88;1.30;;;;;;;31.49;45.42;100168.13;5022007;28;20624;-82
2023/08/25 09:21:58;;;;;;;2.17;1.35;;;;;;;31.34;45.39;100168.72;5022235;28;20104;-82
2023/08/25 09:24:25;;;;;;;3.25;1.58;;;;;;;30.72;47.10;100174.22;5016368;28;20545;-80
2023/08/25 09:26:52;;;;;;;2.60;1.20;;;;;;;30.80;46.59;100166.16;5025607;28;20631;-80
2023/08/25 09:29:19;;;;;;;4.70;1.83;;;;;;;30.90;46.63;100168.78;5027045;28;20123;-80
2023/08/25 09:31:46;;;;;;;6.40;1.80;;;;;;;31.20;45.96;100169.31;5025109;28;20045;-78
2023/08/25 09:34:15;;;;;;;2.75;1.85;;;;;;;31.48;45.37;100172.66;5029208;28;20059;-82
2023/08/25 09:36:56;;;;;;;1.67;1.40;;;;;;;31.58;45.16;100169.00;5031857;28;20052;-79
2023/08/25 09:39:24;;;;;;;2.08;1.52;;;;;;;31.80;44.86;100175.72;5042539;28;20049;-80
2023/08/25 09:41:51;;;;;;;2.75;1.52;;;;;;;31.60;44.56;100181.38;5024637;28;20056;-79
2023/08/25 09:44:18;;;;;;;1.50;1.40;;;;;;;31.03;45.00;100198.09;5033530;28;20052;-80
2023/08/25 09:46:46;;;;;;;1.88;1.60;;;;;;;30.00;47.82;100193.09;5030845;28;20045;-80
2023/08/25 09:49:14;;;;;;;3.17;1.58;;;;;;;29.64;48.83;100193.78;5027947;28;20051;-79
2023/08/25 09:51:47;;;;;;;3.22;1.70;;;;;;;29.39;49.88;100195.31;5053274;28;20045;-81
2023/08/25 09:54:16;;;;;;;4.60;1.38;;;;;;;29.09;50.80;100207.16;5020532;28;20037;-79
2023/08/25 09:56:46;;;;;;;2.33;1.40;;;;;;;28.96;51.40;100223.63;5024832;28;20122;-80
2023/08/25 09:59:14;;;;;;;2.60;1.80;;;;;;;28.58;52.73;100223.47;5024002;28;20116;-79
2023/08/25 10:01:44;;;;;;;5.25;2.15;;;;;;;27.76;55.40;100228.09;5044470;28;20056;-79
2023/08/25 10:04:12;;;;;;;6.88;2.90;;;;;;;26.92;58.29;100242.41;5040796;28;20079;-84
2023/08/25 10:06:41;;;;;;;2.47;2.22;;;;;;;26.24;61.24;100240.81;5027039;28;20044;-84
2023/08/25 10:09:08;;;;;;;2.38;1.73;;;;;;;25.80;63.24;100241.69;5016166;28;20060;-82
2023/08/25 10:11:41;;;;;;;2.63;1.80;;;;;;;25.49;65.16;100228.91;5029137;28;20119;-80
2023/08/25 10:14:14;;;;;;;2.42;1.52;;;;;;;25.36;67.16;100218.28;5029806;28;20045;-86
2023/08/25 10:16:51;;;;;;;5.25;1.83;;;;;;;25.27;68.20;100225.16;5028301;28;20049;-81
2023/08/25 10:19:24;;;;;;;2.10;1.90;;;;;;;25.13;68.60;100222.72;5032864;28;20033;-78
2023/08/25 10:21:52;;;;;;;2.83;1.92;;;;;;;25.12;68.75;100221.00;5033193;28;20048;-79
2023/08/25 10:24:21;;;;;;;4.28;2.85;;;;;;;25.01;69.44;100221.84;5040413;28;20044;-79
2023/08/25 10:26:51;;;;;;;5.93;2.10;;;;;;;24.78;71.34;100218.22;5035269;28;20045;-79
2023/08/25 10:29:23;;;;;;;3.63;2.05;;;;;;;24.70;71.89;100213.44;5030891;28;20053;-79
2023/08/25 10:32:02;;;;;;;2.58;2.20;;;;;;;24.65;72.99;100206.75;5033735;28;20055;-81
2023/08/25 10:34:44;;;;;;;3.35;2.65;;;;;;;24.57;73.17;100204.63;5031500;28;20055;-80
2023/08/25 10:37:14;;;;;;;3.67;2.97;;;;;;;24.47;73.24;100204.47;5026006;28;20041;-79
2023/08/25 10:39:52;;;;;;;3.53;2.90;;;;;;;24.36;74.12;100194.53;5013961;28;20041;-82
2023/08/25 10:42:39;;;;;;;4.22;3.63;;;;;;;24.25;76.77;100194.50;5069634;28;20476;-79
2023/08/25 10:45:10;;;;;;;3.65;2.75;;;;;;;24.12;77.24;100197.22;5032823;28;20126;-79
2023/08/25 10:47:44;;;;;;;8.30;3.90;;;;;;;24.00;80.64;100190.09;5050337;28;20473;-81
2023/08/25 10:50:11;;;;;;;6.55;4.35;;;;;;;23.73;83.67;100177.75;5060312;28;20068;-79
2023/08/25 10:52:50;;;;;;;5.68;4.47;;;;;;;23.46;86.21;100165.38;5017012;28;20071;-87
2023/08/25 10:55:33;;;;;;;6.95;5.03;;;;;;;23.05;90.64;100151.28;5015888;28;20037;-79
2023/08/25 10:58:06;;;;;;;6.10;5.47;;;;;;;22.39;94.49;100151.25;5035793;28;20040;-78
2023/08/25 11:00:34;;;;;;;6.20;5.65;;;;;;;22.01;98.08;100143.97;5032852;28;20039;-81
2023/08/25 11:03:02;;;;;;;7.15;5.55;;;;;;;21.71;100.00;100146.81;5049717;28;20665;-79
2023/08/25 11:05:29;;;;;;;9.68;7.88;;;;;;;21.35;100.00;100170.25;5034494;28;20041;-84
2023/08/25 11:08:02;;;;;;;7.97;7.18;;;;;;;21.13;100.00;100206.19;5047898;28;20046;-80
2023/08/25 11:10:33;;;;;;;8.32;7.57;;;;;;;21.08;100.00;100204.75;5060912;28;20075;-81
2023/08/25 11:13:04;;;;;;;10.02;7.68;;;;;;;20.85;100.00;100219.44;5033536;28;20044;-79
2023/08/25 11:15:31;;;;;;;11.63;8.27;;;;;;;20.77;100.00;100220.75;5021148;28;20232;-87
2023/08/25 11:17:58;;;;;;;12.18;8.35;;;;;;;20.68;100.00;100210.59;5033251;28;20569;-79
2023/08/25 11:20:24;;;;;;;12.23;8.48;;;;;;;20.61;100.00;100210.13;5026741;28;20044;-79
2023/08/25 11:23:00;;;;;;;9.02;8.27;;;;;;;20.66;100.00;100191.22;5013944;28;20054;-81
2023/08/25 11:25:28;;;;;;;8.40;7.25;;;;;;;20.62;100.00;100166.63;5029720;28;20037;-79
2023/08/25 11:27:56;;;;;;;10.05;8.10;;;;;;;20.71;100.00;100145.78;5034098;28;20045;-78
2023/08/25 11:30:23;;;;;;;8.80;7.85;;;;;;;20.74;100.00;100156.22;5049500;28;20452;-79